createdAt,value
2023-05-10T00:00:23.192Z,1836.00
2023-05-10T00:01:23.194Z,1825.00
2023-05-10T00:02:23.329Z,1820.00
2023-05-10T00:03:23.410Z,1827.00
2023-05-10T00:04:23.371Z,1826.00
2023-05-10T00:05:23.293Z,1826.00
2023-05-10T00:06:23.323Z,1832.00
2023-05-10T00:07:23.334Z,1828.00
2023-05-10T00:08:23.412Z,1828.00
2023-05-10T00:09:23.423Z,1822.00
2023-05-10T00:10:23.421Z,1835.00
2023-05-10T00:11:23.449Z,1818.00
2023-05-10T00:12:23.434Z,1823.00
2023-05-10T00:13:23.425Z,1820.00
2023-05-10T00:14:23.495Z,1825.00
2023-05-10T00:15:23.493Z,1827.00
2023-05-10T00:16:24.435Z,1821.00
2023-05-10T00:17:23.674Z,1827.00
2023-05-10T00:18:23.582Z,1827.00
2023-05-10T00:19:23.596Z,1829.00
2023-05-10T00:20:23.664Z,1834.00
2023-05-10T00:21:23.632Z,1816.00
2023-05-10T00:22:23.698Z,1825.00
2023-05-10T00:23:23.723Z,1820.00
2023-05-10T00:24:23.794Z,1818.00
2023-05-10T00:25:23.774Z,1810.00
2023-05-10T00:26:23.805Z,1810.00
2023-05-10T00:27:23.804Z,1800.00
2023-05-10T00:28:23.896Z,1795.00
2023-05-10T00:29:23.917Z,1810.00
2023-05-10T00:30:23.988Z,1792.00
2023-05-10T00:31:24.013Z,1792.00
2023-05-10T00:32:24.056Z,1801.00
2023-05-10T00:33:24.056Z,1797.00
2023-05-10T00:34:24.036Z,1795.00
2023-05-10T00:35:24.055Z,1778.00
2023-05-10T00:36:24.077Z,1789.00
2023-05-10T00:37:24.126Z,1784.00
2023-05-10T00:38:24.154Z,1794.00
2023-05-10T00:39:24.192Z,1777.00
2023-05-10T00:40:24.183Z,1792.00
2023-05-10T00:41:24.211Z,1793.00
2023-05-10T00:42:24.181Z,1791.00
2023-05-10T00:43:24.455Z,1784.00
2023-05-10T00:44:24.263Z,1784.00
2023-05-10T00:45:24.274Z,1790.00
2023-05-10T00:46:24.336Z,1788.00
2023-05-10T00:47:24.349Z,1772.00
2023-05-10T00:48:24.403Z,1769.00
2023-05-10T00:49:24.412Z,1787.00
2023-05-10T00:50:24.430Z,1769.00
2023-05-10T00:51:24.434Z,1774.00
2023-05-10T00:52:24.944Z,1772.00
2023-05-10T00:53:24.490Z,1775.00
2023-05-10T00:54:24.497Z,1783.00
2023-05-10T00:55:24.481Z,1775.00
2023-05-10T00:56:24.565Z,1783.00
2023-05-10T00:57:24.550Z,1776.00
2023-05-10T00:58:24.581Z,1783.00
2023-05-10T00:59:24.583Z,1774.00
2023-05-10T01:00:24.624Z,1776.00
2023-05-10T01:01:24.690Z,1762.00
2023-05-10T01:02:24.736Z,1759.00
2023-05-10T01:03:24.742Z,1765.00
2023-05-10T01:04:24.766Z,1762.00
2023-05-10T01:05:24.743Z,1760.00
2023-05-10T01:06:24.755Z,1773.00
2023-05-10T01:07:24.744Z,1759.00
2023-05-10T01:08:24.774Z,1760.00
2023-05-10T01:09:24.780Z,1766.00
2023-05-10T01:10:24.821Z,1765.00
2023-05-10T01:11:24.815Z,1748.00
2023-05-10T01:12:24.898Z,1766.00
2023-05-10T01:13:24.993Z,1759.00
2023-05-10T01:14:24.869Z,1749.00
2023-05-10T01:15:24.922Z,1769.00
2023-05-10T01:16:25.088Z,1762.00
2023-05-10T01:17:25.066Z,1769.00
2023-05-10T01:18:25.057Z,1755.00
2023-05-10T01:19:25.113Z,1760.00
2023-05-10T01:20:25.093Z,1757.00
2023-05-10T01:21:25.137Z,1751.00
2023-05-10T01:22:25.151Z,1747.00
2023-05-10T01:23:25.187Z,1743.00
2023-05-10T01:24:25.254Z,1753.00
2023-05-10T01:25:25.220Z,1760.00
2023-05-10T01:26:25.285Z,1739.00
2023-05-10T01:27:25.426Z,1757.00
2023-05-10T01:28:25.327Z,1747.00
2023-05-10T01:29:25.371Z,1744.00
2023-05-10T01:30:25.573Z,1747.00
2023-05-10T01:31:25.488Z,1751.00
2023-05-10T01:32:25.448Z,1750.00
2023-05-10T01:33:25.524Z,1747.00
2023-05-10T01:34:25.463Z,1754.00
2023-05-10T01:35:25.516Z,1744.00
2023-05-10T01:36:25.539Z,1756.00
2023-05-10T01:37:25.574Z,1736.00
2023-05-10T01:38:25.592Z,1753.00
2023-05-10T01:39:25.597Z,1755.00
2023-05-10T01:40:25.607Z,1746.00
2023-05-10T01:41:25.611Z,1738.00
2023-05-10T01:42:25.614Z,1747.00
2023-05-10T01:43:25.932Z,1740.00
2023-05-10T01:44:25.707Z,1718.00
2023-05-10T01:45:25.737Z,1733.00
2023-05-10T01:46:25.729Z,1745.00
2023-05-10T01:47:25.805Z,1747.00
2023-05-10T01:48:25.829Z,1733.00
2023-05-10T01:49:25.772Z,1751.00
2023-05-10T01:50:25.887Z,1742.00
2023-05-10T01:51:25.843Z,1735.00
2023-05-10T01:52:25.859Z,1737.00
2023-05-10T01:53:25.865Z,1737.00
2023-05-10T01:54:25.843Z,1732.00
2023-05-10T01:55:25.909Z,1732.00
2023-05-10T01:56:25.911Z,1726.00
2023-05-10T01:57:25.878Z,1728.00
2023-05-10T01:58:25.948Z,1735.00
2023-05-10T01:59:25.940Z,1731.00
2023-05-10T02:00:25.982Z,1727.00
2023-05-10T02:01:26.013Z,1725.00
2023-05-10T02:02:26.050Z,1726.00
2023-05-10T02:03:26.112Z,1715.00
2023-05-10T02:04:26.136Z,1723.00
2023-05-10T02:05:26.073Z,1706.00
2023-05-10T02:06:26.106Z,1722.00
2023-05-10T02:07:26.152Z,1709.00
2023-05-10T02:08:26.193Z,1719.00
2023-05-10T02:09:26.155Z,1709.00
2023-05-10T02:10:26.184Z,1720.00
2023-05-10T02:11:26.193Z,1715.00
2023-05-10T02:12:26.218Z,1713.00
2023-05-10T02:13:26.373Z,1715.00
2023-05-10T02:14:26.247Z,1719.00
2023-05-10T02:15:26.278Z,1708.00
2023-05-10T02:16:26.296Z,1714.00
2023-05-10T02:17:26.349Z,1715.00
2023-05-10T02:18:26.323Z,1718.00
2023-05-10T02:19:26.351Z,1724.00
2023-05-10T02:20:26.306Z,1708.00
2023-05-10T02:21:26.399Z,1708.00
2023-05-10T02:22:26.400Z,1712.00
2023-05-10T02:23:26.476Z,1716.00
2023-05-10T02:24:26.485Z,1714.00
2023-05-10T02:25:26.469Z,1716.00
2023-05-10T02:26:26.497Z,1708.00
2023-05-10T02:27:26.610Z,1708.00
2023-05-10T02:28:26.567Z,1710.00
2023-05-10T02:29:26.579Z,1717.00
2023-05-10T02:30:26.642Z,1707.00
2023-05-10T02:31:26.628Z,1700.00
2023-05-10T02:32:26.722Z,1703.00
2023-05-10T02:33:26.657Z,1714.00
2023-05-10T02:34:26.728Z,1699.00
2023-05-10T02:35:26.784Z,1693.00
2023-05-10T02:36:26.762Z,1707.00
2023-05-10T02:37:26.748Z,1702.00
2023-05-10T02:38:26.778Z,1698.00
2023-05-10T02:39:26.789Z,1693.00
2023-05-10T02:40:28.658Z,1693.00
2023-05-10T02:41:26.834Z,1702.00
2023-05-10T02:42:26.884Z,1692.00
2023-05-10T02:43:26.855Z,1698.00
2023-05-10T02:44:26.863Z,1682.00
2023-05-10T02:45:26.861Z,1709.00
2023-05-10T02:46:26.965Z,1700.00
2023-05-10T02:47:26.934Z,1693.00
2023-05-10T02:48:26.988Z,1692.00
2023-05-10T02:49:26.968Z,1693.00
2023-05-10T02:50:26.997Z,1694.00
2023-05-10T02:51:27.034Z,1694.00
2023-05-10T02:52:27.076Z,1699.00
2023-05-10T02:53:27.140Z,1689.00
2023-05-10T02:54:27.142Z,1694.00
2023-05-10T02:55:27.112Z,1693.00
2023-05-10T02:56:27.204Z,1691.00
2023-05-10T02:57:27.177Z,1691.00
2023-05-10T02:58:27.232Z,1686.00
2023-05-10T02:59:27.288Z,1688.00
2023-05-10T03:00:27.244Z,1693.00
2023-05-10T03:01:27.334Z,1685.00
2023-05-10T03:02:27.341Z,1677.00
2023-05-10T03:03:27.359Z,1690.00
2023-05-10T03:04:27.424Z,1678.00
2023-05-10T03:05:27.999Z,1681.00
2023-05-10T03:06:27.433Z,1681.00
2023-05-10T03:07:27.467Z,1676.00
2023-05-10T03:08:27.441Z,1684.00
2023-05-10T03:09:27.504Z,1679.00
2023-05-10T03:10:27.511Z,1682.00
2023-05-10T03:11:27.580Z,1690.00
2023-05-10T03:12:27.589Z,1681.00
2023-05-10T03:13:27.654Z,1673.00
2023-05-10T03:14:27.598Z,1677.00
2023-05-10T03:15:27.601Z,1678.00
2023-05-10T03:16:27.823Z,1674.00
2023-05-10T03:17:27.684Z,1669.00
2023-05-10T03:18:28.015Z,1677.00
2023-05-10T03:19:27.721Z,1657.00
2023-05-10T03:20:27.717Z,1675.00
2023-05-10T03:21:27.744Z,1674.00
2023-05-10T03:22:27.790Z,1667.00
2023-05-10T03:23:27.852Z,1680.00
2023-05-10T03:24:27.820Z,1674.00
2023-05-10T03:25:27.825Z,1685.00
2023-05-10T03:26:27.879Z,1676.00
2023-05-10T03:27:27.862Z,1671.00
2023-05-10T03:28:27.903Z,1664.00
2023-05-10T03:29:27.889Z,1674.00
2023-05-10T03:30:27.921Z,1663.00
2023-05-10T03:31:28.008Z,1662.00
2023-05-10T03:32:28.049Z,1660.00
2023-05-10T03:33:27.999Z,1668.00
2023-05-10T03:34:27.969Z,1666.00
2023-05-10T03:35:27.999Z,1652.00
2023-05-10T03:36:27.994Z,1664.00
2023-05-10T03:37:28.002Z,1664.00
2023-05-10T03:38:29.740Z,1667.00
2023-05-10T03:39:28.180Z,1656.00
2023-05-10T03:40:28.230Z,1662.00
2023-05-10T03:41:28.230Z,1654.00
2023-05-10T03:42:28.267Z,1651.00
2023-05-10T03:43:28.249Z,1661.00
2023-05-10T03:44:28.277Z,1657.00
2023-05-10T03:45:28.319Z,1654.00
2023-05-10T03:46:28.459Z,1645.00
2023-05-10T03:47:28.467Z,1659.00
2023-05-10T03:48:28.455Z,1652.00
2023-05-10T03:49:28.547Z,1650.00
2023-05-10T03:50:28.497Z,1654.00
2023-05-10T03:51:28.573Z,1651.00
2023-05-10T03:52:28.561Z,1651.00
2023-05-10T03:53:28.588Z,1646.00
2023-05-10T03:54:28.622Z,1643.00
2023-05-10T03:55:28.585Z,1654.00
2023-05-10T03:56:29.011Z,1644.00
2023-05-10T03:57:28.674Z,1645.00
2023-05-10T03:58:28.725Z,1637.00
2023-05-10T03:59:28.895Z,1645.00
2023-05-10T04:00:28.720Z,1647.00
2023-05-10T04:01:28.764Z,1638.00
2023-05-10T04:02:28.896Z,1637.00
2023-05-10T04:03:28.921Z,1643.00
2023-05-10T04:04:28.865Z,1633.00
2023-05-10T04:05:28.846Z,1636.00
2023-05-10T04:06:28.950Z,1643.00
2023-05-10T04:07:28.884Z,1645.00
2023-05-10T04:08:28.952Z,1635.00
2023-05-10T04:09:28.953Z,1623.00
2023-05-10T04:10:28.973Z,1622.00
2023-05-10T04:11:28.969Z,1606.00
2023-05-10T04:12:29.006Z,1588.00
2023-05-10T04:13:29.096Z,1571.00
2023-05-10T04:14:29.541Z,1565.00
2023-05-10T04:15:29.106Z,1566.00
2023-05-10T04:16:29.155Z,1568.00
2023-05-10T04:17:29.201Z,1552.00
2023-05-10T04:18:29.153Z,1543.00
2023-05-10T04:19:29.229Z,1517.00
2023-05-10T04:20:29.252Z,1497.00
2023-05-10T04:21:29.255Z,1489.00
2023-05-10T04:22:29.261Z,1475.00
2023-05-10T04:23:29.260Z,1474.00
2023-05-10T04:24:29.260Z,1456.00
2023-05-10T04:25:29.338Z,1455.00
2023-05-10T04:26:29.279Z,1451.00
2023-05-10T04:27:29.323Z,1448.00
2023-05-10T04:28:29.338Z,1428.00
2023-05-10T04:29:29.342Z,1424.00
2023-05-10T04:30:29.448Z,1413.00
2023-05-10T04:31:29.562Z,1422.00
2023-05-10T04:32:29.460Z,1424.00
2023-05-10T04:33:29.426Z,1413.00
2023-05-10T04:34:29.477Z,1394.00
2023-05-10T04:35:29.501Z,1398.00
2023-05-10T04:36:29.482Z,1386.00
2023-05-10T04:37:29.492Z,1372.00
2023-05-10T04:38:29.494Z,1376.00
2023-05-10T04:39:29.567Z,1367.00
2023-05-10T04:40:29.637Z,1365.00
2023-05-10T04:41:29.589Z,1365.00
2023-05-10T04:42:29.597Z,1363.00
2023-05-10T04:43:29.592Z,1379.00
2023-05-10T04:44:29.643Z,1372.00
2023-05-10T04:45:29.649Z,1384.00
2023-05-10T04:46:29.754Z,1378.00
2023-05-10T04:47:29.699Z,1378.00
2023-05-10T04:48:29.664Z,1372.00
2023-05-10T04:49:29.679Z,1380.00
2023-05-10T04:50:29.705Z,1374.00
2023-05-10T04:51:30.010Z,1370.00
2023-05-10T04:52:29.720Z,1377.00
2023-05-10T04:53:29.752Z,1399.00
2023-05-10T04:54:29.781Z,1406.00
2023-05-10T04:55:29.775Z,1433.00
2023-05-10T04:56:29.834Z,1470.00
2023-05-10T04:57:29.834Z,1514.00
2023-05-10T04:58:29.870Z,1527.00
2023-05-10T04:59:29.911Z,1483.00
2023-05-10T05:00:29.915Z,1450.00
2023-05-10T05:01:29.966Z,1427.00
2023-05-10T05:02:30.014Z,1407.00
2023-05-10T05:03:30.027Z,1388.00
2023-05-10T05:04:29.996Z,1372.00
2023-05-10T05:05:30.009Z,1353.00
2023-05-10T05:06:29.964Z,1346.00
2023-05-10T05:07:30.001Z,1342.00
2023-05-10T05:08:30.033Z,1345.00
2023-05-10T05:09:30.030Z,1336.00
2023-05-10T05:10:30.145Z,1339.00
2023-05-10T05:11:30.114Z,1337.00
2023-05-10T05:12:30.116Z,1348.00
2023-05-10T05:13:30.275Z,1326.00
2023-05-10T05:14:30.161Z,1331.00
2023-05-10T05:15:30.164Z,1330.00
2023-05-10T05:16:30.211Z,1316.00
2023-05-10T05:17:30.308Z,1322.00
2023-05-10T05:18:30.206Z,1298.00
2023-05-10T05:19:30.191Z,1297.00
2023-05-10T05:20:30.237Z,1311.00
2023-05-10T05:21:30.214Z,1334.00
2023-05-10T05:22:30.286Z,1327.00
2023-05-10T05:23:30.234Z,1304.00
2023-05-10T05:24:30.311Z,1314.00
2023-05-10T05:25:30.368Z,1297.00
2023-05-10T05:26:30.328Z,1270.00
2023-05-10T05:27:30.374Z,1220.00
2023-05-10T05:28:30.333Z,1168.00
2023-05-10T05:29:30.398Z,1177.00
2023-05-10T05:30:30.388Z,1175.00
2023-05-10T05:31:30.485Z,1153.00
2023-05-10T05:32:30.474Z,1179.00
2023-05-10T05:33:30.471Z,1191.00
2023-05-10T05:34:30.444Z,1205.00
2023-05-10T05:35:30.495Z,1198.00
2023-05-10T05:36:30.915Z,1095.00
2023-05-10T05:37:30.534Z,978.00
2023-05-10T05:38:30.593Z,894.00
2023-05-10T05:39:30.643Z,867.00
2023-05-10T05:40:30.617Z,814.00
2023-05-10T05:41:30.665Z,705.00
2023-05-10T05:42:30.674Z,641.00
2023-05-10T05:43:31.543Z,632.00
2023-05-10T05:44:31.061Z,612.00
2023-05-10T05:45:31.591Z,569.00
2023-05-10T05:46:30.803Z,555.00
2023-05-10T05:47:30.838Z,539.00
2023-05-10T05:48:30.882Z,532.00
2023-05-10T05:49:31.527Z,532.00
2023-05-10T05:50:31.537Z,526.00
2023-05-10T05:51:30.909Z,522.00
2023-05-10T05:52:30.916Z,509.00
2023-05-10T05:53:30.921Z,502.00
2023-05-10T05:54:30.913Z,503.00
2023-05-10T05:55:31.034Z,510.00
2023-05-10T05:56:31.033Z,514.00
2023-05-10T05:57:31.076Z,521.00
2023-05-10T05:58:31.096Z,521.00
2023-05-10T05:59:31.132Z,540.00
2023-05-10T06:00:31.290Z,541.00
2023-05-10T06:01:31.566Z,521.00
2023-05-10T06:02:31.403Z,504.00
2023-05-10T06:03:31.504Z,506.00
2023-05-10T06:04:31.428Z,513.00
2023-05-10T06:05:31.390Z,518.00
2023-05-10T06:06:31.556Z,537.00
2023-05-10T06:07:31.566Z,534.00
2023-05-10T06:08:31.527Z,509.00
2023-05-10T06:09:32.045Z,502.00
2023-05-10T06:10:31.607Z,501.00
2023-05-10T06:11:32.064Z,510.00
2023-05-10T06:12:31.692Z,528.00
2023-05-10T06:13:31.748Z,544.00
2023-05-10T06:14:31.767Z,563.00
2023-05-10T06:15:31.827Z,567.00
2023-05-10T06:16:31.850Z,572.00
2023-05-10T06:17:31.846Z,579.00
2023-05-10T06:18:31.885Z,590.00
2023-05-10T06:19:31.920Z,594.00
2023-05-10T06:20:31.931Z,584.00
2023-05-10T06:21:32.006Z,581.00
2023-05-10T06:22:32.078Z,572.00
2023-05-10T06:23:32.090Z,580.00
2023-05-10T06:24:32.052Z,577.00
2023-05-10T06:25:32.101Z,589.00
2023-05-10T06:26:33.052Z,582.00
2023-05-10T06:27:32.177Z,581.00
2023-05-10T06:28:32.194Z,583.00
2023-05-10T06:29:32.198Z,592.00
2023-05-10T06:30:32.317Z,605.00
2023-05-10T06:31:32.347Z,624.00
2023-05-10T06:32:32.435Z,646.00
2023-05-10T06:33:32.332Z,703.00
2023-05-10T06:34:32.391Z,737.00
2023-05-10T06:35:32.410Z,767.00
2023-05-10T06:36:32.436Z,808.00
2023-05-10T06:37:32.458Z,869.00
2023-05-10T06:38:32.568Z,832.00
2023-05-10T06:39:32.604Z,777.00
2023-05-10T06:40:32.545Z,666.00
2023-05-10T06:41:32.546Z,605.00
2023-05-10T06:42:32.593Z,588.00
2023-05-10T06:43:32.600Z,583.00
2023-05-10T06:44:32.679Z,586.00
2023-05-10T06:45:32.651Z,584.00
2023-05-10T06:46:32.756Z,572.00
2023-05-10T06:47:32.761Z,574.00
2023-05-10T06:48:33.106Z,553.00
2023-05-10T06:49:34.704Z,542.00
2023-05-10T06:50:32.851Z,536.00
2023-05-10T06:51:32.817Z,539.00
2023-05-10T06:52:32.838Z,558.00
2023-05-10T06:53:32.888Z,563.00
2023-05-10T06:54:32.858Z,537.00
2023-05-10T06:55:33.125Z,501.00
2023-05-10T06:56:32.865Z,509.00
2023-05-10T06:57:33.087Z,526.00
2023-05-10T06:58:33.122Z,540.00
2023-05-10T06:59:32.980Z,536.00
2023-05-10T07:00:33.588Z,515.00
2023-05-10T07:01:33.059Z,523.00
2023-05-10T07:02:33.168Z,543.00
2023-05-10T07:03:33.637Z,577.00
2023-05-10T07:04:33.180Z,609.00
2023-05-10T07:05:33.224Z,629.00
2023-05-10T07:06:33.938Z,645.00
2023-05-10T07:07:33.103Z,665.00
2023-05-10T07:08:33.603Z,721.00
2023-05-10T07:09:33.214Z,777.00
2023-05-10T07:10:33.258Z,831.00
2023-05-10T07:11:33.270Z,851.00
2023-05-10T07:12:33.408Z,905.00
2023-05-10T07:13:33.573Z,945.00
2023-05-10T07:14:33.457Z,949.00
2023-05-10T07:15:33.612Z,997.00
2023-05-10T07:16:34.264Z,1024.00
2023-05-10T07:17:33.632Z,1026.00
2023-05-10T07:18:33.637Z,1054.00
2023-05-10T07:19:35.095Z,1078.00
2023-05-10T07:20:33.641Z,1088.00
2023-05-10T07:21:33.712Z,1109.00
2023-05-10T07:22:34.068Z,1128.00
2023-05-10T07:23:34.059Z,1141.00
2023-05-10T07:24:33.764Z,1172.00
2023-05-10T07:25:33.771Z,1177.00
2023-05-10T07:26:33.768Z,1203.00
2023-05-10T07:27:33.932Z,1218.00
2023-05-10T07:28:33.878Z,1235.00
2023-05-10T07:29:33.938Z,1253.00
2023-05-10T07:30:36.756Z,1255.00
2023-05-10T07:31:33.886Z,1274.00
2023-05-10T07:32:33.988Z,1289.00
2023-05-10T07:33:33.884Z,1316.00
2023-05-10T07:34:34.659Z,1338.00
2023-05-10T07:35:34.160Z,1365.00
2023-05-10T07:36:34.599Z,1355.00
2023-05-10T07:37:34.083Z,1368.00
2023-05-10T07:38:33.809Z,1388.00
2023-05-10T07:39:34.072Z,1393.00
2023-05-10T07:40:34.097Z,1425.00
2023-05-10T07:41:35.736Z,1432.00
2023-05-10T07:42:33.780Z,1465.00
2023-05-10T07:43:33.779Z,1457.00
2023-05-10T07:44:33.741Z,1470.00
2023-05-10T07:45:33.758Z,1478.00
2023-05-10T07:46:33.743Z,1481.00
2023-05-10T07:47:33.792Z,1496.00
2023-05-10T07:48:33.773Z,1508.00
2023-05-10T07:49:33.819Z,1519.00
2023-05-10T07:50:33.856Z,1532.00
2023-05-10T07:51:34.121Z,1529.00
2023-05-10T07:52:33.870Z,1525.00
2023-05-10T07:53:33.912Z,1528.00
2023-05-10T07:54:33.890Z,1526.00
2023-05-10T07:55:33.980Z,1530.00
2023-05-10T07:56:34.015Z,1551.00
2023-05-10T07:57:33.984Z,1539.00
2023-05-10T07:58:34.038Z,1542.00
2023-05-10T07:59:34.142Z,1551.00
2023-05-10T08:00:34.117Z,1559.00
2023-05-10T08:01:34.113Z,1556.00
2023-05-10T08:02:34.264Z,1547.00
2023-05-10T08:03:34.261Z,1560.00
2023-05-10T08:04:34.244Z,1562.00
2023-05-10T08:05:35.777Z,1575.00
2023-05-10T08:06:34.189Z,1575.00
2023-05-10T08:07:34.241Z,1577.00
2023-05-10T08:08:34.252Z,1578.00
2023-05-10T08:09:35.192Z,1585.00
2023-05-10T08:10:35.067Z,1601.00
2023-05-10T08:11:35.134Z,1619.00
2023-05-10T08:12:34.308Z,1614.00
2023-05-10T08:13:35.177Z,1616.00
2023-05-10T08:14:34.356Z,1621.00
2023-05-10T08:15:34.392Z,1622.00
2023-05-10T08:16:35.134Z,1615.00
2023-05-10T08:17:34.473Z,1592.00
2023-05-10T08:18:35.156Z,1613.00
2023-05-10T08:19:34.453Z,1607.00
2023-05-10T08:20:34.564Z,1625.00
2023-05-10T08:21:34.513Z,1602.00
2023-05-10T08:22:35.132Z,1620.00
2023-05-10T08:23:34.600Z,1616.00
2023-05-10T08:24:37.162Z,1606.00
2023-05-10T08:25:34.947Z,1612.00
2023-05-10T08:26:34.921Z,1609.00
2023-05-10T08:27:34.860Z,1614.00
2023-05-10T08:28:35.253Z,1611.00
2023-05-10T08:29:46.263Z,1592.00
2023-05-10T08:30:35.966Z,1593.00
2023-05-10T08:31:34.998Z,1595.00
2023-05-10T08:32:34.932Z,1602.00
2023-05-10T08:33:34.893Z,1608.00
2023-05-10T08:34:34.905Z,1591.00
2023-05-10T08:35:34.900Z,1601.00
2023-05-10T08:36:34.884Z,1612.00
2023-05-10T08:37:35.596Z,1607.00
2023-05-10T08:38:35.654Z,1600.00
2023-05-10T08:39:35.222Z,1600.00
2023-05-10T08:40:34.871Z,1605.00
2023-05-10T08:41:34.897Z,1595.00
2023-05-10T08:42:34.817Z,1562.00
2023-05-10T08:43:34.865Z,1551.00
2023-05-10T08:44:35.660Z,1552.00
2023-05-10T08:45:34.945Z,1533.00
2023-05-10T08:46:34.824Z,1525.00
2023-05-10T08:47:34.874Z,1517.00
2023-05-10T08:48:34.860Z,1506.00
2023-05-10T08:49:34.905Z,1512.00
2023-05-10T08:50:34.904Z,1512.00
2023-05-10T08:51:34.922Z,1520.00
2023-05-10T08:52:34.983Z,1509.00
2023-05-10T08:53:34.991Z,1520.00
2023-05-10T08:54:35.010Z,1502.00
2023-05-10T08:55:34.998Z,1495.00
2023-05-10T08:56:35.002Z,1492.00
2023-05-10T08:57:35.165Z,1479.00
2023-05-10T08:58:35.670Z,1486.00
2023-05-10T08:59:35.194Z,1481.00
2023-05-10T09:00:35.233Z,1501.00
2023-05-10T09:01:35.167Z,1490.00
2023-05-10T09:02:35.163Z,1483.00
2023-05-10T09:03:35.162Z,1465.00
2023-05-10T09:04:35.208Z,1446.00
2023-05-10T09:05:35.175Z,1456.00
2023-05-10T09:06:35.187Z,1436.00
2023-05-10T09:07:36.370Z,1431.00
2023-05-10T09:08:35.237Z,1428.00
2023-05-10T09:09:35.235Z,1419.00
2023-05-10T09:10:35.306Z,1419.00
2023-05-10T09:11:35.666Z,1377.00
2023-05-10T09:12:35.328Z,1385.00
2023-05-10T09:13:35.366Z,1398.00
2023-05-10T09:14:35.356Z,1374.00
2023-05-10T09:15:35.415Z,1382.00
2023-05-10T09:16:35.407Z,1378.00
2023-05-10T09:17:35.436Z,1379.00
2023-05-10T09:18:35.518Z,1374.00
2023-05-10T09:19:36.139Z,1376.00
2023-05-10T09:20:35.443Z,1365.00
2023-05-10T09:21:35.625Z,1376.00
2023-05-10T09:22:35.498Z,1380.00
2023-05-10T09:23:35.509Z,1365.00
2023-05-10T09:24:35.512Z,1397.00
2023-05-10T09:25:35.601Z,1384.00
2023-05-10T09:26:35.627Z,1386.00
2023-05-10T09:27:36.109Z,1374.00
2023-05-10T09:28:38.801Z,1391.00
2023-05-10T09:29:35.647Z,1405.00
2023-05-10T09:30:35.604Z,1389.00
2023-05-10T09:31:35.622Z,1361.00
2023-05-10T09:32:35.656Z,1363.00
2023-05-10T09:33:35.568Z,1374.00
2023-05-10T09:34:35.587Z,1383.00
2023-05-10T09:35:35.542Z,1384.00
2023-05-10T09:36:35.601Z,1420.00
2023-05-10T09:37:35.747Z,1409.00
2023-05-10T09:38:36.112Z,1388.00
2023-05-10T09:39:35.551Z,1350.00
2023-05-10T09:40:35.572Z,1314.00
2023-05-10T09:41:35.521Z,1307.00
2023-05-10T09:42:35.534Z,1286.00
2023-05-10T09:43:36.191Z,1276.00
2023-05-10T09:44:35.555Z,1307.00
2023-05-10T09:45:37.732Z,1337.00
2023-05-10T09:46:35.530Z,1338.00
2023-05-10T09:47:35.501Z,1327.00
2023-05-10T09:48:35.491Z,1338.00
2023-05-10T09:49:35.484Z,1358.00
2023-05-10T09:50:35.595Z,1393.00
2023-05-10T09:51:36.660Z,1413.00
2023-05-10T09:52:35.703Z,1419.00
2023-05-10T09:53:35.440Z,1433.00
2023-05-10T09:54:35.472Z,1458.00
2023-05-10T09:55:35.429Z,1464.00
2023-05-10T09:56:35.450Z,1461.00
2023-05-10T09:57:35.638Z,1440.00
2023-05-10T09:58:35.438Z,1462.00
2023-05-10T09:59:35.445Z,1469.00
2023-05-10T10:00:35.419Z,1489.00
2023-05-10T10:01:35.471Z,1485.00
2023-05-10T10:02:37.215Z,1483.00
2023-05-10T10:03:35.442Z,1489.00
2023-05-10T10:04:35.536Z,1485.00
2023-05-10T10:05:35.385Z,1494.00
2023-05-10T10:06:35.416Z,1491.00
2023-05-10T10:07:35.405Z,1496.00
2023-05-10T10:08:35.430Z,1499.00
2023-05-10T10:09:35.382Z,1495.00
2023-05-10T10:10:35.341Z,1492.00
2023-05-10T10:11:35.379Z,1457.00
2023-05-10T10:12:35.324Z,1414.00
2023-05-10T10:13:35.683Z,1174.00
2023-05-10T10:14:35.663Z,1068.00
2023-05-10T10:15:35.799Z,1064.00
2023-05-10T10:16:35.350Z,1074.00
2023-05-10T10:17:35.272Z,1026.00
2023-05-10T10:18:36.234Z,1047.00
2023-05-10T10:19:36.429Z,1011.00
2023-05-10T10:20:35.282Z,1060.00
2023-05-10T10:21:35.249Z,1099.00
2023-05-10T10:22:35.710Z,1128.00
2023-05-10T10:23:36.147Z,1155.00
2023-05-10T10:24:35.218Z,1159.00
2023-05-10T10:25:35.248Z,1178.00
2023-05-10T10:26:35.776Z,1193.00
2023-05-10T10:27:37.230Z,1194.00
2023-05-10T10:28:35.309Z,1168.00
2023-05-10T10:29:35.402Z,1165.00
2023-05-10T10:30:35.420Z,1191.00
2023-05-10T10:31:35.370Z,1193.00
2023-05-10T10:32:35.466Z,1186.00
2023-05-10T10:33:35.467Z,1170.00
2023-05-10T10:34:35.451Z,1199.00
2023-05-10T10:35:35.722Z,1205.00
2023-05-10T10:36:35.537Z,1222.00
2023-05-10T10:37:35.558Z,1226.00
2023-05-10T10:38:35.568Z,1244.00
2023-05-10T10:39:35.631Z,1241.00
2023-05-10T10:40:35.647Z,1260.00
2023-05-10T10:41:35.704Z,1244.00
2023-05-10T10:42:35.687Z,1223.00
2023-05-10T10:43:35.652Z,1227.00
2023-05-10T10:44:37.198Z,1220.00
2023-05-10T10:45:35.658Z,1186.00
2023-05-10T10:46:35.798Z,1192.00
2023-05-10T10:47:35.813Z,1195.00
2023-05-10T10:48:35.732Z,1197.00
2023-05-10T10:49:35.797Z,1206.00
2023-05-10T10:50:35.805Z,1231.00
2023-05-10T10:51:35.845Z,1256.00
2023-05-10T10:52:35.824Z,1258.00
2023-05-10T10:53:35.892Z,1258.00
2023-05-10T10:54:35.943Z,1258.00
2023-05-10T10:55:35.929Z,1262.00
2023-05-10T10:56:37.191Z,1247.00
2023-05-10T10:57:35.975Z,1266.00
2023-05-10T10:58:36.025Z,1244.00
2023-05-10T10:59:36.026Z,1245.00
2023-05-10T11:00:36.065Z,1220.00
2023-05-10T11:01:36.053Z,1217.00
2023-05-10T11:02:36.151Z,1218.00
2023-05-10T11:03:36.116Z,1186.00
2023-05-10T11:04:36.272Z,1151.00
2023-05-10T11:05:36.155Z,1090.00
2023-05-10T11:06:36.241Z,1096.00
2023-05-10T11:07:36.257Z,1047.00
2023-05-10T11:08:38.217Z,1038.00
2023-05-10T11:09:36.288Z,1034.00
2023-05-10T11:10:36.343Z,1040.00
2023-05-10T11:11:37.271Z,1054.00
2023-05-10T11:12:36.369Z,1050.00
2023-05-10T11:13:36.366Z,1060.00
2023-05-10T11:14:36.386Z,1064.00
2023-05-10T11:15:36.700Z,1082.00
2023-05-10T11:16:36.480Z,1048.00
2023-05-10T11:17:36.739Z,1046.00
2023-05-10T11:18:36.504Z,1040.00
2023-05-10T11:19:36.517Z,1014.00
2023-05-10T11:20:36.509Z,1027.00
2023-05-10T11:21:36.539Z,997.00
2023-05-10T11:22:36.525Z,1000.00
2023-05-10T11:23:36.551Z,1023.00
2023-05-10T11:24:36.603Z,1046.00
2023-05-10T11:25:36.600Z,1037.00
2023-05-10T11:26:36.681Z,1029.00
2023-05-10T11:27:36.715Z,1029.00
2023-05-10T11:28:36.720Z,1048.00
2023-05-10T11:29:36.724Z,1057.00
2023-05-10T11:30:36.752Z,1061.00
2023-05-10T11:31:36.810Z,1087.00
2023-05-10T11:32:36.897Z,1098.00
2023-05-10T11:33:36.824Z,1074.00
2023-05-10T11:34:36.874Z,1070.00
2023-05-10T11:35:36.860Z,1070.00
2023-05-10T11:36:37.079Z,1093.00
2023-05-10T11:37:36.951Z,1101.00
2023-05-10T11:38:37.003Z,1093.00
2023-05-10T11:39:36.993Z,1086.00
2023-05-10T11:40:37.044Z,1089.00
2023-05-10T11:41:37.097Z,1094.00
2023-05-10T11:42:37.088Z,1100.00
2023-05-10T11:43:37.239Z,1116.00
2023-05-10T11:44:37.273Z,1138.00
2023-05-10T11:45:37.153Z,1124.00
2023-05-10T11:46:37.176Z,1134.00
2023-05-10T11:47:37.229Z,1118.00
2023-05-10T11:48:37.187Z,1087.00
2023-05-10T11:49:37.252Z,1097.00
2023-05-10T11:50:37.276Z,1078.00
2023-05-10T11:51:37.299Z,1092.00
2023-05-10T11:52:37.365Z,1107.00
2023-05-10T11:53:37.402Z,1109.00
2023-05-10T11:54:37.309Z,1093.00
2023-05-10T11:55:37.391Z,1100.00
2023-05-10T11:56:37.385Z,1109.00
2023-05-10T11:57:37.382Z,1094.00
2023-05-10T11:58:37.499Z,1096.00
2023-05-10T11:59:37.411Z,1078.00
2023-05-10T12:00:37.473Z,1031.00
2023-05-10T12:01:37.523Z,1029.00
2023-05-10T12:02:38.277Z,995.00
2023-05-10T12:03:37.761Z,981.00
2023-05-10T12:04:37.677Z,975.00
2023-05-10T12:05:38.204Z,974.00
2023-05-10T12:06:37.630Z,997.00
2023-05-10T12:07:37.689Z,982.00
2023-05-10T12:08:37.715Z,973.00
2023-05-10T12:09:43.835Z,964.00